Flight Track Log - Related Links

Times and Time Zones

All times are in EDT time to prevent confusion due to time zone crossing. See the EJA982 flight status page for this flight to view local times or setup timezone preferences in your user account.

Time Position Orientation Groundspeed Altitude Reporting Facility
EDT Latitude Longitude Course Direction KTS MPH feet Rate Location/Type
Fri 03:34:00 PM 47.0806 -94.6418 152° Southeast  Level Estimated
Fri 03:35:00 PM 46.9945 -94.5838 153° Southeast  Level Estimated
Fri 03:36:00 PM 46.9084 -94.5260 153° Southeast  Level Estimated
Fri 03:36:21 PM 47.5186 -94.9975 154° Southeast 265 305 4,200  Level Minneapolis Center
Fri 03:37:00 PM 46.8222 -94.4683 154° Southeast  Level Estimated
Fri 03:37:23 PM 47.4478 -95.0125 188° South 308 354 8,300  Level Minneapolis Center
Fri 03:38:00 PM 46.7565 -94.3685 134° Southeast  Level FlightAware Approximate
Fri 03:38:39 PM 47.3836 -94.9058 132° Southeast 308 354 13,000  Level Minneapolis Center
Fri 03:39:00 PM 46.6697 -94.3135 146° Southeast  Level Estimated
Fri 03:39:41 PM 47.2867 -94.8222 150° Southeast 335 386 17,600  Level Minneapolis Center
Fri 03:40:00 PM 46.5827 -94.2586 151° Southeast  Level Estimated
Fri 03:40:43 PM 47.1997 -94.7439 149° Southeast 356 410 20,000  Level Minneapolis Center
Fri 03:41:00 PM 46.4958 -94.2039 154° Southeast  Level Estimated
Fri 03:41:45 PM 47.0956 -94.6569 150° Southeast 405 466 21,000  Level Minneapolis Center
Fri 03:43:00 PM 46.9550 -94.5361 150° Southeast 472 543 21,000  Level Minneapolis Center
Fri 03:44:02 PM 46.8103 -94.4147 150° Southeast 488 562 21,000  Level Minneapolis Center
Fri 03:45:04 PM 46.6892 -94.3117 150° Southeast 500 575 21,000  Level Minneapolis Center
Fri 03:46:06 PM 46.5706 -94.2111 150° Southeast 500 575 21,000  Level Minneapolis Center
Fri 03:47:08 PM 46.4536 -94.1164 151° Southeast 491 565 21,000  Level Minneapolis Center
Fri 03:48:10 PM 46.3347 -94.0211 151° Southeast 492 566 21,000  Level Minneapolis Center
Fri 03:49:12 PM 46.1797 -93.9356 159° South 490 564 21,000  Level Minneapolis Center
Fri 03:50:15 PM 46.0533 -93.8667 159° South 488 562 21,000  Level Minneapolis Center
Fri 03:51:17 PM 45.9267 -93.7978 159° South 488 562 21,000  Level Minneapolis Center
Fri 03:52:19 PM 45.8000 -93.7267 159° South 490 564 21,000  Level Minneapolis Center
Fri 03:53:21 PM 45.6733 -93.6569 159° South 489 563 21,000 -823 Level Minneapolis Center
Fri 03:54:23 PM 45.5464 -93.5889 159° South 489 563 19,300 -2,323 Descending Minneapolis Center
Fri 03:55:25 PM 45.3983 -93.5083 159° South 476 548 16,200 -2,426 Descending Minneapolis Center
Fri 03:56:39 PM 45.2803 -93.4450 159° South 452 520 13,800 -2,234 Descending Minneapolis Center
Fri 03:57:42 PM 45.1467 -93.3739 159° South 428 493 11,100 -1,392 Descending Minneapolis Center
Fri 03:58:44 PM 45.0431 -93.3178 159° South 400 460 10,900 -194 Descending Minneapolis Center
Fri 03:59:46 PM 44.9775 -93.2219 134° Southeast 342 394 10,700 -1,113 Descending Minneapolis Center
Fri 04:00:48 PM 44.9400 -93.1119 116° Southeast 306 352 8,600 -2,903 Descending Minneapolis Center
Fri 04:01:50 PM 44.8981 -92.9847 115° Southeast 296 341 4,700 -2,661 Descending Minneapolis Center
Fri 04:02:52 PM 44.8244 -92.9717 173° South 261 300 3,100 -816 Descending Minneapolis Center
Fri 04:03:55 PM 44.8056 -93.0500 251° West 224 258 3,000 -384 Descending Minneapolis Center
Fri 04:04:57 PM 44.8356 -93.1142 303° West 199 229 2,300 -677 Descending Minneapolis Center
Fri 04:05:59 PM 44.8547 -93.1572 302° West 128 147 1,600 -677 Descending Minneapolis Center
Fri 04:08:00 PM 44.8667 -93.2167 180° South  Level FlightAware Approximate
Fri 04:15:00 PM 44.8820 -93.2218 180° South  Level Estimated

Login

Don't have an account? Register now (free) for customized features, flight alerts, and more!